sensor_id;sensor_type;location;lat;lon;timestamp;temperature;humidity
51908;DHT22;39320;53.214;6.556;2023-12-22T00:00:47;6.70;99.90
51908;DHT22;39320;53.214;6.556;2023-12-22T00:03:14;6.80;99.90
51908;DHT22;39320;53.214;6.556;2023-12-22T00:05:41;6.90;99.90
51908;DHT22;39320;53.214;6.556;2023-12-22T00:08:06;6.90;99.90
51908;DHT22;39320;53.214;6.556;2023-12-22T00:10:32;7.00;99.90
51908;DHT22;39320;53.214;6.556;2023-12-22T00:12:58;6.90;99.90
51908;DHT22;39320;53.214;6.556;2023-12-22T00:15:23;6.90;99.90
51908;DHT22;39320;53.214;6.556;2023-12-22T00:17:49;7.70;99.90
51908;DHT22;39320;53.214;6.556;2023-12-22T00:20:15;6.90;99.90
51908;DHT22;39320;53.214;6.556;2023-12-22T00:22:40;6.90;99.90
51908;DHT22;39320;53.214;6.556;2023-12-22T00:25:06;6.80;99.90
51908;DHT22;39320;53.214;6.556;2023-12-22T00:27:35;6.70;99.90
51908;DHT22;39320;53.214;6.556;2023-12-22T00:30:01;6.70;99.90
51908;DHT22;39320;53.214;6.556;2023-12-22T00:32:27;6.70;99.90
51908;DHT22;39320;53.214;6.556;2023-12-22T00:34:52;6.60;99.90
51908;DHT22;39320;53.214;6.556;2023-12-22T00:37:18;6.80;99.90
51908;DHT22;39320;53.214;6.556;2023-12-22T00:39:44;6.60;99.90
51908;DHT22;39320;53.214;6.556;2023-12-22T00:42:09;6.60;99.90
51908;DHT22;39320;53.214;6.556;2023-12-22T00:44:35;6.60;99.90
51908;DHT22;39320;53.214;6.556;2023-12-22T00:47:01;6.50;99.90
51908;DHT22;39320;53.214;6.556;2023-12-22T00:49:27;6.50;99.90
51908;DHT22;39320;53.214;6.556;2023-12-22T00:51:52;6.40;99.90
51908;DHT22;39320;53.214;6.556;2023-12-22T00:54:18;6.50;99.90
51908;DHT22;39320;53.214;6.556;2023-12-22T00:56:44;6.50;99.90
51908;DHT22;39320;53.214;6.556;2023-12-22T00:59:09;6.50;99.90
51908;DHT22;39320;53.214;6.556;2023-12-22T01:01:35;6.50;99.90
51908;DHT22;39320;53.214;6.556;2023-12-22T01:04:01;6.50;99.90
51908;DHT22;39320;53.214;6.556;2023-12-22T01:06:26;6.50;99.90
51908;DHT22;39320;53.214;6.556;2023-12-22T01:08:52;6.50;99.90
51908;DHT22;39320;53.214;6.556;2023-12-22T01:11:18;6.50;99.90
51908;DHT22;39320;53.214;6.556;2023-12-22T01:13:44;6.50;99.90
51908;DHT22;39320;53.214;6.556;2023-12-22T01:16:10;6.50;99.90
51908;DHT22;39320;53.214;6.556;2023-12-22T01:18:36;6.50;99.90
51908;DHT22;39320;53.214;6.556;2023-12-22T01:21:01;6.50;99.90
51908;DHT22;39320;53.214;6.556;2023-12-22T01:23:27;6.50;99.90
51908;DHT22;39320;53.214;6.556;2023-12-22T01:25:53;6.60;99.90
51908;DHT22;39320;53.214;6.556;2023-12-22T01:28:19;6.60;99.90
51908;DHT22;39320;53.214;6.556;2023-12-22T01:30:44;6.60;99.90
51908;DHT22;39320;53.214;6.556;2023-12-22T01:33:10;6.60;99.90
51908;DHT22;39320;53.214;6.556;2023-12-22T01:35:36;6.60;99.90
51908;DHT22;39320;53.214;6.556;2023-12-22T01:38:02;6.70;99.90
51908;DHT22;39320;53.214;6.556;2023-12-22T01:40:27;6.70;99.90
51908;DHT22;39320;53.214;6.556;2023-12-22T01:42:53;6.70;99.90
51908;DHT22;39320;53.214;6.556;2023-12-22T01:45:19;6.70;99.90
51908;DHT22;39320;53.214;6.556;2023-12-22T01:47:46;6.70;99.90
51908;DHT22;39320;53.214;6.556;2023-12-22T01:50:12;6.70;99.90
51908;DHT22;39320;53.214;6.556;2023-12-22T01:52:42;6.70;99.90
51908;DHT22;39320;53.214;6.556;2023-12-22T01:55:10;6.60;99.90
51908;DHT22;39320;53.214;6.556;2023-12-22T01:57:36;6.60;99.90
51908;DHT22;39320;53.214;6.556;2023-12-22T02:00:02;6.50;99.90
51908;DHT22;39320;53.214;6.556;2023-12-22T02:02:30;6.50;99.90
51908;DHT22;39320;53.214;6.556;2023-12-22T02:04:57;6.50;99.90
51908;DHT22;39320;53.214;6.556;2023-12-22T02:07:24;6.40;99.90
51908;DHT22;39320;53.214;6.556;2023-12-22T02:09:50;6.40;99.90
51908;DHT22;39320;53.214;6.556;2023-12-22T02:12:15;6.40;99.90
51908;DHT22;39320;53.214;6.556;2023-12-22T02:14:41;6.50;99.90
51908;DHT22;39320;53.214;6.556;2023-12-22T02:17:18;6.50;99.90
51908;DHT22;39320;53.214;6.556;2023-12-22T02:19:48;6.60;99.90
51908;DHT22;39320;53.214;6.556;2023-12-22T02:22:14;6.60;99.90
51908;DHT22;39320;53.214;6.556;2023-12-22T02:24:40;6.50;99.90
51908;DHT22;39320;53.214;6.556;2023-12-22T02:29:43;6.40;99.90
51908;DHT22;39320;53.214;6.556;2023-12-22T02:32:16;6.30;99.90
51908;DHT22;39320;53.214;6.556;2023-12-22T02:34:46;6.30;99.90
51908;DHT22;39320;53.214;6.556;2023-12-22T02:37:15;6.30;99.90
51908;DHT22;39320;53.214;6.556;2023-12-22T02:39:42;6.30;99.90
51908;DHT22;39320;53.214;6.556;2023-12-22T02:42:09;6.30;99.90
51908;DHT22;39320;53.214;6.556;2023-12-22T02:44:35;6.30;99.90
51908;DHT22;39320;53.214;6.556;2023-12-22T02:47:01;6.30;99.90
51908;DHT22;39320;53.214;6.556;2023-12-22T02:49:29;6.30;99.90
51908;DHT22;39320;53.214;6.556;2023-12-22T02:51:55;6.30;99.90
51908;DHT22;39320;53.214;6.556;2023-12-22T02:54:21;6.30;99.90
51908;DHT22;39320;53.214;6.556;2023-12-22T02:56:47;6.40;99.90
51908;DHT22;39320;53.214;6.556;2023-12-22T02:59:13;6.50;99.90
51908;DHT22;39320;53.214;6.556;2023-12-22T03:01:38;6.50;99.90
51908;DHT22;39320;53.214;6.556;2023-12-22T03:04:04;6.90;99.90
51908;DHT22;39320;53.214;6.556;2023-12-22T03:06:30;6.60;99.90
51908;DHT22;39320;53.214;6.556;2023-12-22T03:08:55;6.60;99.90
51908;DHT22;39320;53.214;6.556;2023-12-22T03:11:21;6.40;99.90
51908;DHT22;39320;53.214;6.556;2023-12-22T03:13:47;6.10;99.90
51908;DHT22;39320;53.214;6.556;2023-12-22T03:16:15;6.00;99.90
51908;DHT22;39320;53.214;6.556;2023-12-22T03:18:41;5.80;99.90
51908;DHT22;39320;53.214;6.556;2023-12-22T03:21:06;5.70;99.90
51908;DHT22;39320;53.214;6.556;2023-12-22T03:23:32;5.60;99.90
51908;DHT22;39320;53.214;6.556;2023-12-22T03:25:58;5.60;99.90
51908;DHT22;39320;53.214;6.556;2023-12-22T03:28:27;5.60;99.90
51908;DHT22;39320;53.214;6.556;2023-12-22T03:30:53;5.60;99.90
51908;DHT22;39320;53.214;6.556;2023-12-22T03:33:19;5.60;99.90
51908;DHT22;39320;53.214;6.556;2023-12-22T03:35:45;5.80;99.90
51908;DHT22;39320;53.214;6.556;2023-12-22T03:38:10;5.80;99.90
51908;DHT22;39320;53.214;6.556;2023-12-22T03:40:36;5.70;99.90
51908;DHT22;39320;53.214;6.556;2023-12-22T03:43:02;5.80;99.90
51908;DHT22;39320;53.214;6.556;2023-12-22T03:45:27;5.80;99.90
51908;DHT22;39320;53.214;6.556;2023-12-22T03:47:53;5.90;99.90
51908;DHT22;39320;53.214;6.556;2023-12-22T03:50:19;6.00;99.90
51908;DHT22;39320;53.214;6.556;2023-12-22T03:52:44;6.10;99.90
51908;DHT22;39320;53.214;6.556;2023-12-22T03:55:10;6.20;99.90
51908;DHT22;39320;53.214;6.556;2023-12-22T03:57:36;6.30;99.90
51908;DHT22;39320;53.214;6.556;2023-12-22T04:00:01;6.30;99.90
51908;DHT22;39320;53.214;6.556;2023-12-22T04:02:27;6.40;99.90
51908;DHT22;39320;53.214;6.556;2023-12-22T04:04:53;6.50;99.90
51908;DHT22;39320;53.214;6.556;2023-12-22T04:07:18;6.40;99.90
51908;DHT22;39320;53.214;6.556;2023-12-22T04:09:44;6.60;99.90
51908;DHT22;39320;53.214;6.556;2023-12-22T04:12:10;6.50;99.90
51908;DHT22;39320;53.214;6.556;2023-12-22T04:14:35;6.50;99.90
51908;DHT22;39320;53.214;6.556;2023-12-22T04:17:01;6.60;99.90
51908;DHT22;39320;53.214;6.556;2023-12-22T04:19:27;6.60;99.90
51908;DHT22;39320;53.214;6.556;2023-12-22T04:21:53;6.60;99.90
51908;DHT22;39320;53.214;6.556;2023-12-22T04:24:18;6.60;99.90
51908;DHT22;39320;53.214;6.556;2023-12-22T04:26:44;6.70;99.90
51908;DHT22;39320;53.214;6.556;2023-12-22T04:29:10;6.70;99.90
51908;DHT22;39320;53.214;6.556;2023-12-22T04:31:35;6.70;99.90
51908;DHT22;39320;53.214;6.556;2023-12-22T04:34:01;6.70;99.90
51908;DHT22;39320;53.214;6.556;2023-12-22T04:36:27;6.80;99.90
51908;DHT22;39320;53.214;6.556;2023-12-22T04:38:52;6.80;99.90
51908;DHT22;39320;53.214;6.556;2023-12-22T04:41:18;7.00;99.90
51908;DHT22;39320;53.214;6.556;2023-12-22T04:43:44;6.90;99.90
51908;DHT22;39320;53.214;6.556;2023-12-22T04:46:09;7.00;99.90
51908;DHT22;39320;53.214;6.556;2023-12-22T04:48:35;7.00;99.90
51908;DHT22;39320;53.214;6.556;2023-12-22T04:51:01;7.00;99.90
51908;DHT22;39320;53.214;6.556;2023-12-22T04:53:27;7.00;99.90
51908;DHT22;39320;53.214;6.556;2023-12-22T04:55:53;7.10;99.90
51908;DHT22;39320;53.214;6.556;2023-12-22T04:58:18;7.00;99.90
51908;DHT22;39320;53.214;6.556;2023-12-22T05:00:44;7.20;99.90
51908;DHT22;39320;53.214;6.556;2023-12-22T05:03:10;7.00;99.90
51908;DHT22;39320;53.214;6.556;2023-12-22T05:05:35;7.00;99.90
51908;DHT22;39320;53.214;6.556;2023-12-22T05:08:01;7.10;99.90
51908;DHT22;39320;53.214;6.556;2023-12-22T05:10:28;7.10;99.90
51908;DHT22;39320;53.214;6.556;2023-12-22T05:12:53;7.10;99.90
51908;DHT22;39320;53.214;6.556;2023-12-22T05:15:19;7.20;99.90
51908;DHT22;39320;53.214;6.556;2023-12-22T05:17:45;7.20;99.90
51908;DHT22;39320;53.214;6.556;2023-12-22T05:20:11;7.20;99.90
51908;DHT22;39320;53.214;6.556;2023-12-22T05:22:37;7.20;99.90
51908;DHT22;39320;53.214;6.556;2023-12-22T05:25:03;7.30;99.90
51908;DHT22;39320;53.214;6.556;2023-12-22T05:27:28;7.30;99.90
51908;DHT22;39320;53.214;6.556;2023-12-22T05:29:54;7.30;99.90
51908;DHT22;39320;53.214;6.556;2023-12-22T05:32:20;7.20;99.90
51908;DHT22;39320;53.214;6.556;2023-12-22T05:34:45;7.40;99.90
51908;DHT22;39320;53.214;6.556;2023-12-22T05:37:11;7.20;99.90
51908;DHT22;39320;53.214;6.556;2023-12-22T05:39:37;7.20;99.90
51908;DHT22;39320;53.214;6.556;2023-12-22T05:42:03;7.30;99.90
51908;DHT22;39320;53.214;6.556;2023-12-22T05:44:28;7.20;99.90
51908;DHT22;39320;53.214;6.556;2023-12-22T05:46:57;7.20;99.90
51908;DHT22;39320;53.214;6.556;2023-12-22T05:49:22;7.20;99.90
51908;DHT22;39320;53.214;6.556;2023-12-22T05:51:49;7.20;99.90
51908;DHT22;39320;53.214;6.556;2023-12-22T05:54:15;7.40;99.90
51908;DHT22;39320;53.214;6.556;2023-12-22T05:56:45;7.20;99.90
51908;DHT22;39320;53.214;6.556;2023-12-22T05:59:11;7.20;99.90
51908;DHT22;39320;53.214;6.556;2023-12-22T06:01:37;7.20;99.90
51908;DHT22;39320;53.214;6.556;2023-12-22T06:04:03;7.60;99.90
51908;DHT22;39320;53.214;6.556;2023-12-22T06:06:28;7.20;99.90
51908;DHT22;39320;53.214;6.556;2023-12-22T06:08:55;7.20;99.90
51908;DHT22;39320;53.214;6.556;2023-12-22T06:11:21;7.80;99.90
51908;DHT22;39320;53.214;6.556;2023-12-22T06:13:47;7.20;99.90
51908;DHT22;39320;53.214;6.556;2023-12-22T06:16:14;7.20;99.90
51908;DHT22;39320;53.214;6.556;2023-12-22T06:18:40;7.30;99.90
51908;DHT22;39320;53.214;6.556;2023-12-22T06:21:08;7.30;99.90
51908;DHT22;39320;53.214;6.556;2023-12-22T06:23:33;7.30;99.90
51908;DHT22;39320;53.214;6.556;2023-12-22T06:25:59;7.20;99.90
51908;DHT22;39320;53.214;6.556;2023-12-22T06:28:27;7.30;99.90
51908;DHT22;39320;53.214;6.556;2023-12-22T06:30:53;7.20;99.90
51908;DHT22;39320;53.214;6.556;2023-12-22T06:33:19;7.20;99.90
51908;DHT22;39320;53.214;6.556;2023-12-22T06:35:45;7.20;99.90
51908;DHT22;39320;53.214;6.556;2023-12-22T06:38:11;7.20;99.90
51908;DHT22;39320;53.214;6.556;2023-12-22T06:40:37;7.20;99.90
51908;DHT22;39320;53.214;6.556;2023-12-22T06:43:03;7.30;99.90
51908;DHT22;39320;53.214;6.556;2023-12-22T06:45:30;7.30;99.90
51908;DHT22;39320;53.214;6.556;2023-12-22T06:47:55;7.30;99.90
51908;DHT22;39320;53.214;6.556;2023-12-22T06:50:21;7.20;99.90
51908;DHT22;39320;53.214;6.556;2023-12-22T06:52:47;7.10;99.90
51908;DHT22;39320;53.214;6.556;2023-12-22T06:55:12;7.10;99.90
51908;DHT22;39320;53.214;6.556;2023-12-22T06:57:38;6.90;99.90
51908;DHT22;39320;53.214;6.556;2023-12-22T07:00:06;6.80;99.90
51908;DHT22;39320;53.214;6.556;2023-12-22T07:02:32;6.80;99.90
51908;DHT22;39320;53.214;6.556;2023-12-22T07:07:46;6.80;99.90
51908;DHT22;39320;53.214;6.556;2023-12-22T07:10:12;6.90;99.90
51908;DHT22;39320;53.214;6.556;2023-12-22T07:12:38;7.00;99.90
51908;DHT22;39320;53.214;6.556;2023-12-22T07:15:05;7.60;99.90
51908;DHT22;39320;53.214;6.556;2023-12-22T07:17:32;7.00;99.90
51908;DHT22;39320;53.214;6.556;2023-12-22T07:19:58;7.10;99.90
51908;DHT22;39320;53.214;6.556;2023-12-22T07:22:24;7.10;99.90
51908;DHT22;39320;53.214;6.556;2023-12-22T07:24:50;7.10;99.90
51908;DHT22;39320;53.214;6.556;2023-12-22T07:27:18;7.20;99.90
51908;DHT22;39320;53.214;6.556;2023-12-22T07:29:44;7.20;99.90
51908;DHT22;39320;53.214;6.556;2023-12-22T07:32:09;7.20;99.90
51908;DHT22;39320;53.214;6.556;2023-12-22T07:34:35;7.20;99.90
51908;DHT22;39320;53.214;6.556;2023-12-22T07:37:01;7.50;99.90
51908;DHT22;39320;53.214;6.556;2023-12-22T07:39:27;7.20;99.90
51908;DHT22;39320;53.214;6.556;2023-12-22T07:41:52;7.20;99.90
51908;DHT22;39320;53.214;6.556;2023-12-22T07:44:18;7.20;99.90
51908;DHT22;39320;53.214;6.556;2023-12-22T07:46:44;7.20;99.90
51908;DHT22;39320;53.214;6.556;2023-12-22T07:49:09;7.10;99.90
51908;DHT22;39320;53.214;6.556;2023-12-22T07:51:35;7.10;99.90
51908;DHT22;39320;53.214;6.556;2023-12-22T07:54:01;7.10;99.90
51908;DHT22;39320;53.214;6.556;2023-12-22T07:56:27;7.10;99.90
51908;DHT22;39320;53.214;6.556;2023-12-22T07:58:52;7.00;99.90
51908;DHT22;39320;53.214;6.556;2023-12-22T08:01:19;7.10;99.90
51908;DHT22;39320;53.214;6.556;2023-12-22T08:03:44;7.00;99.90
51908;DHT22;39320;53.214;6.556;2023-12-22T08:06:10;7.00;99.90
51908;DHT22;39320;53.214;6.556;2023-12-22T08:08:36;6.60;99.90
51908;DHT22;39320;53.214;6.556;2023-12-22T08:11:02;7.10;99.90
51908;DHT22;39320;53.214;6.556;2023-12-22T08:13:28;7.20;99.90
51908;DHT22;39320;53.214;6.556;2023-12-22T08:15:53;7.60;99.90
51908;DHT22;39320;53.214;6.556;2023-12-22T08:18:19;7.20;99.90
51908;DHT22;39320;53.214;6.556;2023-12-22T08:20:45;7.30;99.90
51908;DHT22;39320;53.214;6.556;2023-12-22T08:23:11;7.30;99.90
51908;DHT22;39320;53.214;6.556;2023-12-22T08:25:37;7.30;99.90
51908;DHT22;39320;53.214;6.556;2023-12-22T08:28:04;7.30;99.90
51908;DHT22;39320;53.214;6.556;2023-12-22T08:30:30;7.30;99.90
51908;DHT22;39320;53.214;6.556;2023-12-22T08:32:56;7.30;99.90
51908;DHT22;39320;53.214;6.556;2023-12-22T08:35:22;7.30;99.90
51908;DHT22;39320;53.214;6.556;2023-12-22T08:37:48;7.30;99.90
51908;DHT22;39320;53.214;6.556;2023-12-22T08:40:14;7.30;99.90
51908;DHT22;39320;53.214;6.556;2023-12-22T08:42:39;7.30;99.90
51908;DHT22;39320;53.214;6.556;2023-12-22T08:45:05;7.30;99.90
51908;DHT22;39320;53.214;6.556;2023-12-22T08:47:31;7.40;99.90
51908;DHT22;39320;53.214;6.556;2023-12-22T08:49:57;7.70;99.90
51908;DHT22;39320;53.214;6.556;2023-12-22T08:52:23;7.40;99.90
51908;DHT22;39320;53.214;6.556;2023-12-22T08:54:48;7.30;99.90
51908;DHT22;39320;53.214;6.556;2023-12-22T08:57:14;7.30;99.90
51908;DHT22;39320;53.214;6.556;2023-12-22T08:59:40;7.30;99.90
51908;DHT22;39320;53.214;6.556;2023-12-22T09:02:06;7.30;99.90
51908;DHT22;39320;53.214;6.556;2023-12-22T09:04:31;7.20;99.90
51908;DHT22;39320;53.214;6.556;2023-12-22T09:06:57;7.20;99.90
51908;DHT22;39320;53.214;6.556;2023-12-22T09:09:23;7.20;99.90
51908;DHT22;39320;53.214;6.556;2023-12-22T09:11:50;7.10;99.90
51908;DHT22;39320;53.214;6.556;2023-12-22T09:14:15;7.10;99.90
51908;DHT22;39320;53.214;6.556;2023-12-22T09:16:41;7.20;99.90
51908;DHT22;39320;53.214;6.556;2023-12-22T09:19:09;7.20;99.90
51908;DHT22;39320;53.214;6.556;2023-12-22T09:21:35;7.10;99.90
51908;DHT22;39320;53.214;6.556;2023-12-22T09:24:01;7.20;99.90
51908;DHT22;39320;53.214;6.556;2023-12-22T09:26:27;7.10;99.90
51908;DHT22;39320;53.214;6.556;2023-12-22T09:28:54;7.10;99.90
51908;DHT22;39320;53.214;6.556;2023-12-22T09:31:20;7.10;99.90
51908;DHT22;39320;53.214;6.556;2023-12-22T09:33:47;7.10;99.90
51908;DHT22;39320;53.214;6.556;2023-12-22T09:36:14;7.10;99.90
51908;DHT22;39320;53.214;6.556;2023-12-22T09:38:40;7.20;99.90
51908;DHT22;39320;53.214;6.556;2023-12-22T09:41:07;7.20;99.90
51908;DHT22;39320;53.214;6.556;2023-12-22T09:43:35;7.40;99.90
51908;DHT22;39320;53.214;6.556;2023-12-22T09:46:02;7.20;99.90
51908;DHT22;39320;53.214;6.556;2023-12-22T09:48:30;7.20;99.90
51908;DHT22;39320;53.214;6.556;2023-12-22T09:50:57;7.30;99.90
51908;DHT22;39320;53.214;6.556;2023-12-22T09:53:24;7.30;99.90
51908;DHT22;39320;53.214;6.556;2023-12-22T09:55:52;7.30;99.90
51908;DHT22;39320;53.214;6.556;2023-12-22T09:58:19;7.30;99.90
51908;DHT22;39320;53.214;6.556;2023-12-22T10:00:45;7.40;99.90
51908;DHT22;39320;53.214;6.556;2023-12-22T10:03:12;7.40;99.90
51908;DHT22;39320;53.214;6.556;2023-12-22T10:05:40;7.40;99.90
51908;DHT22;39320;53.214;6.556;2023-12-22T10:08:07;7.40;99.90
51908;DHT22;39320;53.214;6.556;2023-12-22T10:10:36;7.40;99.90
51908;DHT22;39320;53.214;6.556;2023-12-22T10:13:03;7.40;99.90
51908;DHT22;39320;53.214;6.556;2023-12-22T10:15:33;7.50;99.90
51908;DHT22;39320;53.214;6.556;2023-12-22T10:17:58;7.50;99.90
51908;DHT22;39320;53.214;6.556;2023-12-22T10:20:24;7.50;99.90
51908;DHT22;39320;53.214;6.556;2023-12-22T10:22:50;7.50;99.90
51908;DHT22;39320;53.214;6.556;2023-12-22T10:25:19;7.60;99.90
51908;DHT22;39320;53.214;6.556;2023-12-22T10:27:45;7.50;99.90
51908;DHT22;39320;53.214;6.556;2023-12-22T10:30:12;7.60;99.90
51908;DHT22;39320;53.214;6.556;2023-12-22T10:32:41;7.60;99.90
51908;DHT22;39320;53.214;6.556;2023-12-22T10:35:10;7.60;99.90
51908;DHT22;39320;53.214;6.556;2023-12-22T10:37:37;7.60;99.90
51908;DHT22;39320;53.214;6.556;2023-12-22T10:40:08;7.60;99.90
51908;DHT22;39320;53.214;6.556;2023-12-22T10:42:35;7.60;99.90
51908;DHT22;39320;53.214;6.556;2023-12-22T10:45:01;7.60;99.90
51908;DHT22;39320;53.214;6.556;2023-12-22T10:47:28;7.90;99.90
51908;DHT22;39320;53.214;6.556;2023-12-22T10:49:54;7.60;99.90
51908;DHT22;39320;53.214;6.556;2023-12-22T10:52:20;7.60;99.90
51908;DHT22;39320;53.214;6.556;2023-12-22T10:54:48;7.60;99.90
51908;DHT22;39320;53.214;6.556;2023-12-22T10:57:17;7.70;99.90
51908;DHT22;39320;53.214;6.556;2023-12-22T10:59:45;7.60;99.90
51908;DHT22;39320;53.214;6.556;2023-12-22T11:02:16;7.60;99.90
51908;DHT22;39320;53.214;6.556;2023-12-22T11:04:57;7.70;99.90
51908;DHT22;39320;53.214;6.556;2023-12-22T11:07:24;7.70;99.90
51908;DHT22;39320;53.214;6.556;2023-12-22T11:09:51;7.70;99.90
51908;DHT22;39320;53.214;6.556;2023-12-22T11:12:19;7.70;99.90
51908;DHT22;39320;53.214;6.556;2023-12-22T11:14:46;7.70;99.90
51908;DHT22;39320;53.214;6.556;2023-12-22T11:17:19;7.70;99.90
51908;DHT22;39320;53.214;6.556;2023-12-22T11:19:51;7.70;99.90
51908;DHT22;39320;53.214;6.556;2023-12-22T11:22:18;7.70;99.90
51908;DHT22;39320;53.214;6.556;2023-12-22T11:24:46;7.70;99.90
51908;DHT22;39320;53.214;6.556;2023-12-22T11:27:19;7.70;99.90
51908;DHT22;39320;53.214;6.556;2023-12-22T11:29:49;7.80;99.90
51908;DHT22;39320;53.214;6.556;2023-12-22T11:32:16;7.80;99.90
51908;DHT22;39320;53.214;6.556;2023-12-22T11:34:43;7.80;99.90
51908;DHT22;39320;53.214;6.556;2023-12-22T11:37:13;7.80;99.90
51908;DHT22;39320;53.214;6.556;2023-12-22T11:39:40;7.80;99.90
51908;DHT22;39320;53.214;6.556;2023-12-22T11:42:13;7.80;99.90
51908;DHT22;39320;53.214;6.556;2023-12-22T11:44:40;7.80;99.90
51908;DHT22;39320;53.214;6.556;2023-12-22T11:47:09;7.80;99.90
51908;DHT22;39320;53.214;6.556;2023-12-22T11:49:37;7.80;99.90
51908;DHT22;39320;53.214;6.556;2023-12-22T11:52:29;7.80;99.90
51908;DHT22;39320;53.214;6.556;2023-12-22T11:54:56;7.80;99.90
51908;DHT22;39320;53.214;6.556;2023-12-22T11:59:55;7.90;99.90
51908;DHT22;39320;53.214;6.556;2023-12-22T12:02:21;7.90;99.90
51908;DHT22;39320;53.214;6.556;2023-12-22T12:04:48;7.90;99.90
51908;DHT22;39320;53.214;6.556;2023-12-22T12:10:01;7.90;99.90
51908;DHT22;39320;53.214;6.556;2023-12-22T12:12:27;7.90;99.90
51908;DHT22;39320;53.214;6.556;2023-12-22T12:14:58;7.90;99.90
51908;DHT22;39320;53.214;6.556;2023-12-22T12:17:24;7.90;99.90
51908;DHT22;39320;53.214;6.556;2023-12-22T12:19:51;7.90;99.90
51908;DHT22;39320;53.214;6.556;2023-12-22T12:22:17;7.90;99.90
51908;DHT22;39320;53.214;6.556;2023-12-22T12:24:43;7.90;99.90
51908;DHT22;39320;53.214;6.556;2023-12-22T12:27:11;7.90;99.90
51908;DHT22;39320;53.214;6.556;2023-12-22T12:29:37;8.40;99.90
51908;DHT22;39320;53.214;6.556;2023-12-22T12:32:04;7.90;99.90
51908;DHT22;39320;53.214;6.556;2023-12-22T12:34:31;7.90;99.90
51908;DHT22;39320;53.214;6.556;2023-12-22T12:36:57;7.90;99.90
51908;DHT22;39320;53.214;6.556;2023-12-22T12:39:24;7.90;99.90
51908;DHT22;39320;53.214;6.556;2023-12-22T12:41:54;7.90;99.90
51908;DHT22;39320;53.214;6.556;2023-12-22T12:44:21;7.90;99.90
51908;DHT22;39320;53.214;6.556;2023-12-22T12:46:47;7.90;99.90
51908;DHT22;39320;53.214;6.556;2023-12-22T12:49:13;7.90;99.90
51908;DHT22;39320;53.214;6.556;2023-12-22T12:51:42;8.30;99.90
51908;DHT22;39320;53.214;6.556;2023-12-22T12:54:10;7.90;99.90
51908;DHT22;39320;53.214;6.556;2023-12-22T12:56:40;8.30;99.90
51908;DHT22;39320;53.214;6.556;2023-12-22T12:59:16;7.90;99.90
51908;DHT22;39320;53.214;6.556;2023-12-22T13:01:47;7.90;99.90
51908;DHT22;39320;53.214;6.556;2023-12-22T13:04:13;7.90;99.90
51908;DHT22;39320;53.214;6.556;2023-12-22T13:06:46;7.90;99.90
51908;DHT22;39320;53.214;6.556;2023-12-22T13:09:12;7.90;99.90
51908;DHT22;39320;53.214;6.556;2023-12-22T13:11:39;7.90;99.90
51908;DHT22;39320;53.214;6.556;2023-12-22T13:14:06;7.90;99.90
51908;DHT22;39320;53.214;6.556;2023-12-22T13:16:33;7.90;99.90
51908;DHT22;39320;53.214;6.556;2023-12-22T13:19:01;7.90;99.90
51908;DHT22;39320;53.214;6.556;2023-12-22T13:21:30;7.90;99.90
51908;DHT22;39320;53.214;6.556;2023-12-22T13:24:09;7.80;99.90
51908;DHT22;39320;53.214;6.556;2023-12-22T13:26:38;7.80;99.90
51908;DHT22;39320;53.214;6.556;2023-12-22T13:29:05;7.80;99.90
51908;DHT22;39320;53.214;6.556;2023-12-22T13:31:32;7.80;99.90
51908;DHT22;39320;53.214;6.556;2023-12-22T13:34:02;7.70;99.90
51908;DHT22;39320;53.214;6.556;2023-12-22T13:36:28;7.70;99.90
51908;DHT22;39320;53.214;6.556;2023-12-22T13:38:58;7.70;99.90
51908;DHT22;39320;53.214;6.556;2023-12-22T13:41:24;7.70;99.90
51908;DHT22;39320;53.214;6.556;2023-12-22T13:43:50;7.60;99.90
51908;DHT22;39320;53.214;6.556;2023-12-22T13:46:16;7.60;99.90
51908;DHT22;39320;53.214;6.556;2023-12-22T13:48:42;7.60;99.90
51908;DHT22;39320;53.214;6.556;2023-12-22T13:51:08;7.60;99.90
51908;DHT22;39320;53.214;6.556;2023-12-22T13:53:46;7.50;99.90
51908;DHT22;39320;53.214;6.556;2023-12-22T13:56:11;7.50;99.90
51908;DHT22;39320;53.214;6.556;2023-12-22T13:58:48;7.50;99.90
51908;DHT22;39320;53.214;6.556;2023-12-22T14:01:15;7.50;99.90
51908;DHT22;39320;53.214;6.556;2023-12-22T14:03:42;7.50;99.90
51908;DHT22;39320;53.214;6.556;2023-12-22T14:06:08;7.50;99.90
51908;DHT22;39320;53.214;6.556;2023-12-22T14:08:35;7.40;99.90
51908;DHT22;39320;53.214;6.556;2023-12-22T14:11:01;7.50;99.90
51908;DHT22;39320;53.214;6.556;2023-12-22T14:13:27;7.50;99.90
51908;DHT22;39320;53.214;6.556;2023-12-22T14:15:53;7.50;99.90
51908;DHT22;39320;53.214;6.556;2023-12-22T14:18:19;7.50;99.90
51908;DHT22;39320;53.214;6.556;2023-12-22T14:20:44;7.40;99.90
51908;DHT22;39320;53.214;6.556;2023-12-22T14:23:11;7.50;99.90
51908;DHT22;39320;53.214;6.556;2023-12-22T14:25:42;7.50;99.90
51908;DHT22;39320;53.214;6.556;2023-12-22T14:28:08;7.50;99.90
51908;DHT22;39320;53.214;6.556;2023-12-22T14:30:34;7.60;99.90
51908;DHT22;39320;53.214;6.556;2023-12-22T14:32:59;7.50;99.90
51908;DHT22;39320;53.214;6.556;2023-12-22T14:35:25;7.50;99.90
51908;DHT22;39320;53.214;6.556;2023-12-22T14:37:51;7.50;99.90
51908;DHT22;39320;53.214;6.556;2023-12-22T14:40:17;7.50;99.90
51908;DHT22;39320;53.214;6.556;2023-12-22T14:42:43;7.50;99.90
51908;DHT22;39320;53.214;6.556;2023-12-22T14:45:08;7.50;99.90
51908;DHT22;39320;53.214;6.556;2023-12-22T14:47:34;7.50;99.90
51908;DHT22;39320;53.214;6.556;2023-12-22T14:50:01;7.50;99.90
51908;DHT22;39320;53.214;6.556;2023-12-22T14:52:32;7.50;99.90
51908;DHT22;39320;53.214;6.556;2023-12-22T14:54:59;7.50;99.90
51908;DHT22;39320;53.214;6.556;2023-12-22T14:57:25;7.50;99.90
51908;DHT22;39320;53.214;6.556;2023-12-22T14:59:52;7.50;99.90
51908;DHT22;39320;53.214;6.556;2023-12-22T15:02:17;7.50;99.90
51908;DHT22;39320;53.214;6.556;2023-12-22T15:04:44;7.50;99.90
51908;DHT22;39320;53.214;6.556;2023-12-22T15:07:09;7.80;99.90
51908;DHT22;39320;53.214;6.556;2023-12-22T15:09:39;7.50;99.90
51908;DHT22;39320;53.214;6.556;2023-12-22T15:12:06;7.50;99.90
51908;DHT22;39320;53.214;6.556;2023-12-22T15:14:31;7.50;99.90
51908;DHT22;39320;53.214;6.556;2023-12-22T15:16:57;7.60;99.90
51908;DHT22;39320;53.214;6.556;2023-12-22T15:19:23;7.60;99.90
51908;DHT22;39320;53.214;6.556;2023-12-22T15:21:49;7.60;99.90
51908;DHT22;39320;53.214;6.556;2023-12-22T15:24:14;7.60;99.90
51908;DHT22;39320;53.214;6.556;2023-12-22T15:26:40;7.60;99.90
51908;DHT22;39320;53.214;6.556;2023-12-22T15:29:06;7.60;99.90
51908;DHT22;39320;53.214;6.556;2023-12-22T15:31:31;7.60;99.90
51908;DHT22;39320;53.214;6.556;2023-12-22T15:34:00;7.60;99.90
51908;DHT22;39320;53.214;6.556;2023-12-22T15:36:26;7.60;99.90
51908;DHT22;39320;53.214;6.556;2023-12-22T15:38:53;7.60;99.90
51908;DHT22;39320;53.214;6.556;2023-12-22T15:41:19;7.60;99.90
51908;DHT22;39320;53.214;6.556;2023-12-22T15:43:45;7.60;99.90
51908;DHT22;39320;53.214;6.556;2023-12-22T15:46:10;7.60;99.90
51908;DHT22;39320;53.214;6.556;2023-12-22T15:48:36;7.60;99.90
51908;DHT22;39320;53.214;6.556;2023-12-22T15:51:10;7.60;99.90